sensor_id;sensor_type;location;lat;lon;timestamp;temperature;humidity
10968;DHT22;5536;49.602;10.980;2023-08-07T00:01:38;12.50;99.90
10968;DHT22;5536;49.602;10.980;2023-08-07T00:04:05;12.50;99.90
10968;DHT22;5536;49.602;10.980;2023-08-07T00:06:32;12.50;99.90
10968;DHT22;5536;49.602;10.980;2023-08-07T00:09:00;12.50;99.90
10968;DHT22;5536;49.602;10.980;2023-08-07T00:11:28;12.50;99.90
10968;DHT22;5536;49.602;10.980;2023-08-07T00:13:55;12.50;99.90
10968;DHT22;5536;49.602;10.980;2023-08-07T00:16:22;12.50;99.90
10968;DHT22;5536;49.602;10.980;2023-08-07T00:18:49;12.50;99.90
10968;DHT22;5536;49.602;10.980;2023-08-07T00:21:18;12.50;99.90
10968;DHT22;5536;49.602;10.980;2023-08-07T00:23:45;12.50;99.90
10968;DHT22;5536;49.602;10.980;2023-08-07T00:26:13;12.50;99.90
10968;DHT22;5536;49.602;10.980;2023-08-07T00:28:40;12.50;99.90
10968;DHT22;5536;49.602;10.980;2023-08-07T00:31:07;12.50;99.90
10968;DHT22;5536;49.602;10.980;2023-08-07T00:33:34;12.40;99.90
10968;DHT22;5536;49.602;10.980;2023-08-07T00:36:01;12.40;99.90
10968;DHT22;5536;49.602;10.980;2023-08-07T00:38:28;12.40;99.90
10968;DHT22;5536;49.602;10.980;2023-08-07T00:40:55;12.40;99.90
10968;DHT22;5536;49.602;10.980;2023-08-07T00:43:24;12.40;99.90
10968;DHT22;5536;49.602;10.980;2023-08-07T00:45:51;12.40;99.90
10968;DHT22;5536;49.602;10.980;2023-08-07T00:48:18;12.30;99.90
10968;DHT22;5536;49.602;10.980;2023-08-07T00:50:46;12.30;99.90
10968;DHT22;5536;49.602;10.980;2023-08-07T00:53:14;12.30;99.90
10968;DHT22;5536;49.602;10.980;2023-08-07T00:55:41;12.30;99.90
10968;DHT22;5536;49.602;10.980;2023-08-07T00:58:09;12.30;99.90
10968;DHT22;5536;49.602;10.980;2023-08-07T01:00:37;12.30;99.90
10968;DHT22;5536;49.602;10.980;2023-08-07T01:03:07;12.20;99.90
10968;DHT22;5536;49.602;10.980;2023-08-07T01:05:34;12.30;99.90
10968;DHT22;5536;49.602;10.980;2023-08-07T01:08:02;12.20;99.90
10968;DHT22;5536;49.602;10.980;2023-08-07T01:10:49;12.20;99.90
10968;DHT22;5536;49.602;10.980;2023-08-07T01:13:23;12.20;99.90
10968;DHT22;5536;49.602;10.980;2023-08-07T01:15:55;12.20;99.90
10968;DHT22;5536;49.602;10.980;2023-08-07T01:18:23;12.20;99.90
10968;DHT22;5536;49.602;10.980;2023-08-07T01:20:51;12.20;99.90
10968;DHT22;5536;49.602;10.980;2023-08-07T01:23:19;12.20;99.90
10968;DHT22;5536;49.602;10.980;2023-08-07T01:25:46;12.20;99.90
10968;DHT22;5536;49.602;10.980;2023-08-07T01:28:21;12.20;99.90
10968;DHT22;5536;49.602;10.980;2023-08-07T01:30:54;12.20;99.90
10968;DHT22;5536;49.602;10.980;2023-08-07T01:33:26;12.10;99.90
10968;DHT22;5536;49.602;10.980;2023-08-07T01:35:57;12.10;99.90
10968;DHT22;5536;49.602;10.980;2023-08-07T01:38:27;12.10;99.90
10968;DHT22;5536;49.602;10.980;2023-08-07T01:40:56;12.10;99.90
10968;DHT22;5536;49.602;10.980;2023-08-07T01:43:24;12.10;99.90
10968;DHT22;5536;49.602;10.980;2023-08-07T01:45:51;12.10;99.90
10968;DHT22;5536;49.602;10.980;2023-08-07T01:48:18;12.00;99.90
10968;DHT22;5536;49.602;10.980;2023-08-07T01:50:45;12.10;99.90
10968;DHT22;5536;49.602;10.980;2023-08-07T01:53:12;12.10;99.90
10968;DHT22;5536;49.602;10.980;2023-08-07T01:55:41;12.00;99.90
10968;DHT22;5536;49.602;10.980;2023-08-07T01:58:08;12.00;99.90
10968;DHT22;5536;49.602;10.980;2023-08-07T02:00:35;12.00;99.90
10968;DHT22;5536;49.602;10.980;2023-08-07T02:03:03;12.00;99.90
10968;DHT22;5536;49.602;10.980;2023-08-07T02:05:29;12.00;99.90
10968;DHT22;5536;49.602;10.980;2023-08-07T02:07:57;12.00;99.90
10968;DHT22;5536;49.602;10.980;2023-08-07T02:10:23;12.00;99.90
10968;DHT22;5536;49.602;10.980;2023-08-07T02:12:52;12.00;99.90
10968;DHT22;5536;49.602;10.980;2023-08-07T02:15:19;12.00;99.90
10968;DHT22;5536;49.602;10.980;2023-08-07T02:17:46;12.00;99.90
10968;DHT22;5536;49.602;10.980;2023-08-07T02:20:13;12.00;99.90
10968;DHT22;5536;49.602;10.980;2023-08-07T02:22:40;11.90;99.90
10968;DHT22;5536;49.602;10.980;2023-08-07T02:25:08;12.00;99.90
10968;DHT22;5536;49.602;10.980;2023-08-07T02:27:35;11.90;99.90
10968;DHT22;5536;49.602;10.980;2023-08-07T02:30:04;12.00;99.90
10968;DHT22;5536;49.602;10.980;2023-08-07T02:32:32;11.90;99.90
10968;DHT22;5536;49.602;10.980;2023-08-07T02:34:59;11.90;99.90
10968;DHT22;5536;49.602;10.980;2023-08-07T02:37:26;11.90;99.90
10968;DHT22;5536;49.602;10.980;2023-08-07T02:39:53;11.90;99.90
10968;DHT22;5536;49.602;10.980;2023-08-07T02:42:20;11.90;99.90
10968;DHT22;5536;49.602;10.980;2023-08-07T02:44:47;11.90;99.90
10968;DHT22;5536;49.602;10.980;2023-08-07T02:47:16;11.80;99.90
10968;DHT22;5536;49.602;10.980;2023-08-07T02:49:43;11.80;99.90
10968;DHT22;5536;49.602;10.980;2023-08-07T02:52:10;11.90;99.90
10968;DHT22;5536;49.602;10.980;2023-08-07T02:54:36;11.80;99.90
10968;DHT22;5536;49.602;10.980;2023-08-07T02:57:04;11.80;99.90
10968;DHT22;5536;49.602;10.980;2023-08-07T02:59:31;11.80;99.90
10968;DHT22;5536;49.602;10.980;2023-08-07T03:01:58;11.80;99.90
10968;DHT22;5536;49.602;10.980;2023-08-07T03:04:26;11.80;99.90
10968;DHT22;5536;49.602;10.980;2023-08-07T03:06:53;11.80;99.90
10968;DHT22;5536;49.602;10.980;2023-08-07T03:09:20;11.80;99.90
10968;DHT22;5536;49.602;10.980;2023-08-07T03:11:47;11.80;99.90
10968;DHT22;5536;49.602;10.980;2023-08-07T03:14:14;11.80;99.90
10968;DHT22;5536;49.602;10.980;2023-08-07T03:16:41;11.80;99.90
10968;DHT22;5536;49.602;10.980;2023-08-07T03:19:08;11.80;99.90
10968;DHT22;5536;49.602;10.980;2023-08-07T03:21:36;11.80;99.90
10968;DHT22;5536;49.602;10.980;2023-08-07T03:24:04;11.80;99.90
10968;DHT22;5536;49.602;10.980;2023-08-07T03:26:31;11.70;99.90
10968;DHT22;5536;49.602;10.980;2023-08-07T03:28:58;11.80;99.90
10968;DHT22;5536;49.602;10.980;2023-08-07T03:31:25;11.80;99.90
10968;DHT22;5536;49.602;10.980;2023-08-07T03:33:52;11.80;99.90
10968;DHT22;5536;49.602;10.980;2023-08-07T03:36:19;11.80;99.90
10968;DHT22;5536;49.602;10.980;2023-08-07T03:38:47;11.80;99.90
10968;DHT22;5536;49.602;10.980;2023-08-07T03:41:15;11.70;99.90
10968;DHT22;5536;49.602;10.980;2023-08-07T03:43:42;11.70;99.90
10968;DHT22;5536;49.602;10.980;2023-08-07T03:46:09;11.70;99.90
10968;DHT22;5536;49.602;10.980;2023-08-07T03:48:37;11.70;99.90
10968;DHT22;5536;49.602;10.980;2023-08-07T03:51:05;11.70;99.90
10968;DHT22;5536;49.602;10.980;2023-08-07T03:53:33;11.70;99.90
10968;DHT22;5536;49.602;10.980;2023-08-07T03:56:02;11.70;99.90
10968;DHT22;5536;49.602;10.980;2023-08-07T03:58:29;11.70;99.90
10968;DHT22;5536;49.602;10.980;2023-08-07T04:00:56;11.70;99.90
10968;DHT22;5536;49.602;10.980;2023-08-07T04:03:23;11.70;99.90
10968;DHT22;5536;49.602;10.980;2023-08-07T04:05:52;11.70;99.90
10968;DHT22;5536;49.602;10.980;2023-08-07T04:08:20;11.70;99.90
10968;DHT22;5536;49.602;10.980;2023-08-07T04:10:57;11.70;99.90
10968;DHT22;5536;49.602;10.980;2023-08-07T04:13:26;11.70;99.90
10968;DHT22;5536;49.602;10.980;2023-08-07T04:15:54;11.70;99.90
10968;DHT22;5536;49.602;10.980;2023-08-07T04:18:21;11.70;99.90
10968;DHT22;5536;49.602;10.980;2023-08-07T04:20:49;11.60;99.90
10968;DHT22;5536;49.602;10.980;2023-08-07T04:23:16;11.60;99.90
10968;DHT22;5536;49.602;10.980;2023-08-07T04:25:44;11.60;99.90
10968;DHT22;5536;49.602;10.980;2023-08-07T04:28:11;11.60;99.90
10968;DHT22;5536;49.602;10.980;2023-08-07T04:30:40;11.60;99.90
10968;DHT22;5536;49.602;10.980;2023-08-07T04:33:07;11.60;99.90
10968;DHT22;5536;49.602;10.980;2023-08-07T04:35:34;11.60;99.90
10968;DHT22;5536;49.602;10.980;2023-08-07T04:38:01;11.60;99.90
10968;DHT22;5536;49.602;10.980;2023-08-07T04:40:29;11.60;99.90
10968;DHT22;5536;49.602;10.980;2023-08-07T04:42:56;11.60;99.90
10968;DHT22;5536;49.602;10.980;2023-08-07T04:45:23;11.60;99.90
10968;DHT22;5536;49.602;10.980;2023-08-07T04:47:51;11.60;99.90
10968;DHT22;5536;49.602;10.980;2023-08-07T04:50:18;11.60;99.90
10968;DHT22;5536;49.602;10.980;2023-08-07T04:52:45;11.60;99.90
10968;DHT22;5536;49.602;10.980;2023-08-07T04:55:12;11.60;99.90
10968;DHT22;5536;49.602;10.980;2023-08-07T04:57:39;11.60;99.90
10968;DHT22;5536;49.602;10.980;2023-08-07T05:00:07;11.60;99.90
10968;DHT22;5536;49.602;10.980;2023-08-07T05:02:35;11.60;99.90
10968;DHT22;5536;49.602;10.980;2023-08-07T05:05:04;11.60;99.90
10968;DHT22;5536;49.602;10.980;2023-08-07T05:07:33;11.60;99.90
10968;DHT22;5536;49.602;10.980;2023-08-07T05:10:01;11.60;99.90
10968;DHT22;5536;49.602;10.980;2023-08-07T05:12:28;11.60;99.90
10968;DHT22;5536;49.602;10.980;2023-08-07T05:14:55;11.60;99.90
10968;DHT22;5536;49.602;10.980;2023-08-07T05:17:22;11.60;99.90
10968;DHT22;5536;49.602;10.980;2023-08-07T05:19:49;11.60;99.90
10968;DHT22;5536;49.602;10.980;2023-08-07T05:22:18;11.60;99.90
10968;DHT22;5536;49.602;10.980;2023-08-07T05:24:45;11.60;99.90
10968;DHT22;5536;49.602;10.980;2023-08-07T05:27:14;11.60;99.90
10968;DHT22;5536;49.602;10.980;2023-08-07T05:29:41;11.60;99.90
10968;DHT22;5536;49.602;10.980;2023-08-07T05:32:10;11.60;99.90
10968;DHT22;5536;49.602;10.980;2023-08-07T05:34:37;11.60;99.90
10968;DHT22;5536;49.602;10.980;2023-08-07T05:37:05;11.60;99.90
10968;DHT22;5536;49.602;10.980;2023-08-07T05:39:33;11.60;99.90
10968;DHT22;5536;49.602;10.980;2023-08-07T05:42:01;11.60;99.90
10968;DHT22;5536;49.602;10.980;2023-08-07T05:44:28;11.60;99.90
10968;DHT22;5536;49.602;10.980;2023-08-07T05:46:55;11.60;99.90
10968;DHT22;5536;49.602;10.980;2023-08-07T05:49:22;11.60;99.90
10968;DHT22;5536;49.602;10.980;2023-08-07T05:51:49;11.60;99.90
10968;DHT22;5536;49.602;10.980;2023-08-07T05:54:16;11.60;99.90
10968;DHT22;5536;49.602;10.980;2023-08-07T05:56:44;11.60;99.90
10968;DHT22;5536;49.602;10.980;2023-08-07T05:59:11;11.60;99.90
10968;DHT22;5536;49.602;10.980;2023-08-07T06:01:38;11.60;99.90
10968;DHT22;5536;49.602;10.980;2023-08-07T06:04:07;11.60;99.90
10968;DHT22;5536;49.602;10.980;2023-08-07T06:06:34;11.70;99.90
10968;DHT22;5536;49.602;10.980;2023-08-07T06:09:01;11.60;99.90
10968;DHT22;5536;49.602;10.980;2023-08-07T06:11:29;11.70;99.90
10968;DHT22;5536;49.602;10.980;2023-08-07T06:13:57;11.60;99.90
10968;DHT22;5536;49.602;10.980;2023-08-07T06:16:24;11.60;99.90
10968;DHT22;5536;49.602;10.980;2023-08-07T06:18:51;11.60;99.90
10968;DHT22;5536;49.602;10.980;2023-08-07T06:21:18;11.60;99.90
10968;DHT22;5536;49.602;10.980;2023-08-07T06:23:46;11.60;99.90
10968;DHT22;5536;49.602;10.980;2023-08-07T06:26:13;11.60;99.90
10968;DHT22;5536;49.602;10.980;2023-08-07T06:28:41;11.60;99.90
10968;DHT22;5536;49.602;10.980;2023-08-07T06:31:10;11.60;99.90
10968;DHT22;5536;49.602;10.980;2023-08-07T06:33:37;11.60;99.90
10968;DHT22;5536;49.602;10.980;2023-08-07T06:36:06;11.60;99.90
10968;DHT22;5536;49.602;10.980;2023-08-07T06:38:33;11.60;99.90
10968;DHT22;5536;49.602;10.980;2023-08-07T06:41:00;11.60;99.90
10968;DHT22;5536;49.602;10.980;2023-08-07T06:43:27;11.60;99.90
10968;DHT22;5536;49.602;10.980;2023-08-07T06:45:55;11.70;99.90
10968;DHT22;5536;49.602;10.980;2023-08-07T06:48:23;11.70;99.90
10968;DHT22;5536;49.602;10.980;2023-08-07T06:50:51;11.70;99.90
10968;DHT22;5536;49.602;10.980;2023-08-07T06:53:19;11.70;99.90
10968;DHT22;5536;49.602;10.980;2023-08-07T06:55:46;11.60;99.90
10968;DHT22;5536;49.602;10.980;2023-08-07T06:58:13;11.70;99.90
10968;DHT22;5536;49.602;10.980;2023-08-07T07:00:40;11.70;99.90
10968;DHT22;5536;49.602;10.980;2023-08-07T07:03:07;11.60;99.90
10968;DHT22;5536;49.602;10.980;2023-08-07T07:05:37;11.70;99.90
10968;DHT22;5536;49.602;10.980;2023-08-07T07:08:04;11.70;99.90
10968;DHT22;5536;49.602;10.980;2023-08-07T07:10:31;11.70;99.90
10968;DHT22;5536;49.602;10.980;2023-08-07T07:12:58;11.80;99.90
10968;DHT22;5536;49.602;10.980;2023-08-07T07:15:25;11.80;99.90
10968;DHT22;5536;49.602;10.980;2023-08-07T07:17:52;11.80;99.90
10968;DHT22;5536;49.602;10.980;2023-08-07T07:20:19;11.80;99.90
10968;DHT22;5536;49.602;10.980;2023-08-07T07:22:48;11.80;99.90
10968;DHT22;5536;49.602;10.980;2023-08-07T07:25:15;11.80;99.90
10968;DHT22;5536;49.602;10.980;2023-08-07T07:27:42;11.90;99.90
10968;DHT22;5536;49.602;10.980;2023-08-07T07:30:10;11.90;99.90
10968;DHT22;5536;49.602;10.980;2023-08-07T07:32:37;11.90;99.90
10968;DHT22;5536;49.602;10.980;2023-08-07T07:35:04;11.90;99.90
10968;DHT22;5536;49.602;10.980;2023-08-07T07:37:32;11.90;99.90
10968;DHT22;5536;49.602;10.980;2023-08-07T07:40:00;11.90;99.90
10968;DHT22;5536;49.602;10.980;2023-08-07T07:42:27;12.00;99.90
10968;DHT22;5536;49.602;10.980;2023-08-07T07:44:54;12.00;99.90
10968;DHT22;5536;49.602;10.980;2023-08-07T07:47:21;12.00;99.90
10968;DHT22;5536;49.602;10.980;2023-08-07T07:49:48;12.00;99.90
10968;DHT22;5536;49.602;10.980;2023-08-07T07:52:15;12.00;99.90
10968;DHT22;5536;49.602;10.980;2023-08-07T07:54:42;12.00;99.90
10968;DHT22;5536;49.602;10.980;2023-08-07T07:57:10;12.10;99.90
10968;DHT22;5536;49.602;10.980;2023-08-07T07:59:37;12.10;99.90
10968;DHT22;5536;49.602;10.980;2023-08-07T08:02:04;12.10;99.90
10968;DHT22;5536;49.602;10.980;2023-08-07T08:04:31;12.10;99.90
10968;DHT22;5536;49.602;10.980;2023-08-07T08:07:00;12.10;99.90
10968;DHT22;5536;49.602;10.980;2023-08-07T08:09:29;12.10;99.90
10968;DHT22;5536;49.602;10.980;2023-08-07T08:11:56;12.10;99.90
10968;DHT22;5536;49.602;10.980;2023-08-07T08:14:24;12.00;99.90
10968;DHT22;5536;49.602;10.980;2023-08-07T08:16:51;12.00;99.90
10968;DHT22;5536;49.602;10.980;2023-08-07T08:19:18;12.00;99.90
10968;DHT22;5536;49.602;10.980;2023-08-07T08:21:45;12.10;99.90
10968;DHT22;5536;49.602;10.980;2023-08-07T08:24:12;12.10;99.90
10968;DHT22;5536;49.602;10.980;2023-08-07T08:26:39;12.20;99.90
10968;DHT22;5536;49.602;10.980;2023-08-07T08:29:06;12.10;99.90
10968;DHT22;5536;49.602;10.980;2023-08-07T08:31:34;12.20;99.90
10968;DHT22;5536;49.602;10.980;2023-08-07T08:34:01;12.20;99.90
10968;DHT22;5536;49.602;10.980;2023-08-07T08:36:29;12.10;99.90
10968;DHT22;5536;49.602;10.980;2023-08-07T08:38:56;12.10;99.90
10968;DHT22;5536;49.602;10.980;2023-08-07T08:41:24;12.10;99.90
10968;DHT22;5536;49.602;10.980;2023-08-07T08:43:52;12.10;99.90
10968;DHT22;5536;49.602;10.980;2023-08-07T08:46:20;12.10;99.90
10968;DHT22;5536;49.602;10.980;2023-08-07T08:48:52;12.10;99.90
10968;DHT22;5536;49.602;10.980;2023-08-07T08:51:22;12.10;99.90
10968;DHT22;5536;49.602;10.980;2023-08-07T08:53:52;12.10;99.90
10968;DHT22;5536;49.602;10.980;2023-08-07T08:56:19;12.10;99.90
10968;DHT22;5536;49.602;10.980;2023-08-07T08:58:49;12.20;99.90
10968;DHT22;5536;49.602;10.980;2023-08-07T09:01:17;12.10;99.90
10968;DHT22;5536;49.602;10.980;2023-08-07T09:03:45;12.10;99.90
10968;DHT22;5536;49.602;10.980;2023-08-07T09:06:14;12.10;99.90
10968;DHT22;5536;49.602;10.980;2023-08-07T09:08:42;12.10;99.90
10968;DHT22;5536;49.602;10.980;2023-08-07T09:11:10;12.20;99.90
10968;DHT22;5536;49.602;10.980;2023-08-07T09:13:40;12.20;99.90
10968;DHT22;5536;49.602;10.980;2023-08-07T09:16:10;12.30;99.90
10968;DHT22;5536;49.602;10.980;2023-08-07T09:18:38;12.30;99.90
10968;DHT22;5536;49.602;10.980;2023-08-07T09:21:05;12.30;99.90
10968;DHT22;5536;49.602;10.980;2023-08-07T09:23:34;12.30;99.90
10968;DHT22;5536;49.602;10.980;2023-08-07T09:26:03;12.40;99.90
10968;DHT22;5536;49.602;10.980;2023-08-07T09:28:32;12.40;99.90
10968;DHT22;5536;49.602;10.980;2023-08-07T09:30:59;12.40;99.90
10968;DHT22;5536;49.602;10.980;2023-08-07T09:33:29;12.40;99.90
10968;DHT22;5536;49.602;10.980;2023-08-07T09:35:58;12.40;99.90
10968;DHT22;5536;49.602;10.980;2023-08-07T09:38:28;12.40;99.90
10968;DHT22;5536;49.602;10.980;2023-08-07T09:40:59;12.40;99.90
10968;DHT22;5536;49.602;10.980;2023-08-07T09:43:26;12.40;99.90
10968;DHT22;5536;49.602;10.980;2023-08-07T09:45:53;12.40;99.90
10968;DHT22;5536;49.602;10.980;2023-08-07T09:48:28;12.40;99.90
10968;DHT22;5536;49.602;10.980;2023-08-07T09:50:58;12.40;99.90
10968;DHT22;5536;49.602;10.980;2023-08-07T09:53:27;12.40;99.90
10968;DHT22;5536;49.602;10.980;2023-08-07T09:55:55;12.50;99.90
10968;DHT22;5536;49.602;10.980;2023-08-07T09:58:24;12.60;99.90
10968;DHT22;5536;49.602;10.980;2023-08-07T10:00:51;12.60;99.90
10968;DHT22;5536;49.602;10.980;2023-08-07T10:03:21;12.70;99.90
10968;DHT22;5536;49.602;10.980;2023-08-07T10:05:48;12.80;99.90
10968;DHT22;5536;49.602;10.980;2023-08-07T10:08:17;12.80;99.90
10968;DHT22;5536;49.602;10.980;2023-08-07T10:10:46;12.90;99.90
10968;DHT22;5536;49.602;10.980;2023-08-07T10:13:14;12.90;99.90
10968;DHT22;5536;49.602;10.980;2023-08-07T10:15:43;12.90;99.90
10968;DHT22;5536;49.602;10.980;2023-08-07T10:18:10;13.00;99.90
10968;DHT22;5536;49.602;10.980;2023-08-07T10:20:38;13.10;99.90
10968;DHT22;5536;49.602;10.980;2023-08-07T10:23:09;13.20;99.90
10968;DHT22;5536;49.602;10.980;2023-08-07T10:25:39;13.20;99.90
10968;DHT22;5536;49.602;10.980;2023-08-07T10:28:09;13.10;99.90
10968;DHT22;5536;49.602;10.980;2023-08-07T10:30:38;13.30;99.90
10968;DHT22;5536;49.602;10.980;2023-08-07T10:33:08;13.30;99.90
10968;DHT22;5536;49.602;10.980;2023-08-07T10:35:35;13.30;99.90
10968;DHT22;5536;49.602;10.980;2023-08-07T10:38:07;13.50;99.90
10968;DHT22;5536;49.602;10.980;2023-08-07T10:40:34;13.40;99.90
10968;DHT22;5536;49.602;10.980;2023-08-07T10:43:23;13.40;99.90
10968;DHT22;5536;49.602;10.980;2023-08-07T10:45:53;13.50;99.90
10968;DHT22;5536;49.602;10.980;2023-08-07T10:48:22;13.60;99.90
10968;DHT22;5536;49.602;10.980;2023-08-07T10:50:50;13.60;99.90
10968;DHT22;5536;49.602;10.980;2023-08-07T10:53:28;13.70;99.90
10968;DHT22;5536;49.602;10.980;2023-08-07T10:55:56;13.80;99.90
10968;DHT22;5536;49.602;10.980;2023-08-07T10:58:25;13.90;99.90
10968;DHT22;5536;49.602;10.980;2023-08-07T11:03:36;13.80;99.90
10968;DHT22;5536;49.602;10.980;2023-08-07T11:06:03;13.70;99.90
10968;DHT22;5536;49.602;10.980;2023-08-07T11:08:30;13.60;99.90
10968;DHT22;5536;49.602;10.980;2023-08-07T11:11:04;13.70;99.90
10968;DHT22;5536;49.602;10.980;2023-08-07T11:13:32;13.60;99.90
10968;DHT22;5536;49.602;10.980;2023-08-07T11:16:00;13.70;99.90
10968;DHT22;5536;49.602;10.980;2023-08-07T11:18:29;13.80;99.90
10968;DHT22;5536;49.602;10.980;2023-08-07T11:20:58;14.00;99.90
10968;DHT22;5536;49.602;10.980;2023-08-07T11:23:27;14.10;99.90
10968;DHT22;5536;49.602;10.980;2023-08-07T11:25:55;14.00;99.90
10968;DHT22;5536;49.602;10.980;2023-08-07T11:28:23;14.10;99.90
10968;DHT22;5536;49.602;10.980;2023-08-07T11:30:52;14.10;99.90
10968;DHT22;5536;49.602;10.980;2023-08-07T11:33:21;14.00;99.90
10968;DHT22;5536;49.602;10.980;2023-08-07T11:35:49;14.10;99.90
10968;DHT22;5536;49.602;10.980;2023-08-07T11:38:30;14.00;99.90
10968;DHT22;5536;49.602;10.980;2023-08-07T11:40:59;14.00;99.90
10968;DHT22;5536;49.602;10.980;2023-08-07T11:43:29;13.90;99.90
10968;DHT22;5536;49.602;10.980;2023-08-07T11:45:58;13.90;99.90
10968;DHT22;5536;49.602;10.980;2023-08-07T11:48:26;13.80;99.90
10968;DHT22;5536;49.602;10.980;2023-08-07T11:50:54;13.70;99.90
10968;DHT22;5536;49.602;10.980;2023-08-07T11:53:22;13.70;99.90
10968;DHT22;5536;49.602;10.980;2023-08-07T11:55:56;13.80;99.90
10968;DHT22;5536;49.602;10.980;2023-08-07T11:58:26;13.80;99.90
10968;DHT22;5536;49.602;10.980;2023-08-07T12:00:53;13.90;99.90
10968;DHT22;5536;49.602;10.980;2023-08-07T12:03:24;14.00;99.90
10968;DHT22;5536;49.602;10.980;2023-08-07T12:05:52;14.00;99.90
10968;DHT22;5536;49.602;10.980;2023-08-07T12:08:20;14.00;99.90
10968;DHT22;5536;49.602;10.980;2023-08-07T12:10:49;14.00;99.90
10968;DHT22;5536;49.602;10.980;2023-08-07T12:13:24;14.10;99.90
10968;DHT22;5536;49.602;10.980;2023-08-07T12:15:54;14.20;99.90
10968;DHT22;5536;49.602;10.980;2023-08-07T12:18:22;14.40;99.90
10968;DHT22;5536;49.602;10.980;2023-08-07T12:20:51;14.30;99.90
10968;DHT22;5536;49.602;10.980;2023-08-07T12:23:21;14.20;99.90
10968;DHT22;5536;49.602;10.980;2023-08-07T12:25:48;14.20;99.90
10968;DHT22;5536;49.602;10.980;2023-08-07T12:28:15;14.20;99.90
10968;DHT22;5536;49.602;10.980;2023-08-07T12:30:46;14.00;99.90
10968;DHT22;5536;49.602;10.980;2023-08-07T12:33:14;13.80;99.90
10968;DHT22;5536;49.602;10.980;2023-08-07T12:35:41;13.70;99.90
10968;DHT22;5536;49.602;10.980;2023-08-07T12:38:08;13.60;99.90
10968;DHT22;5536;49.602;10.980;2023-08-07T12:40:35;13.50;99.90
10968;DHT22;5536;49.602;10.980;2023-08-07T12:43:03;13.50;99.90
10968;DHT22;5536;49.602;10.980;2023-08-07T12:45:30;13.50;99.90
10968;DHT22;5536;49.602;10.980;2023-08-07T12:47:59;13.50;99.90
10968;DHT22;5536;49.602;10.980;2023-08-07T12:50:27;13.50;99.90
10968;DHT22;5536;49.602;10.980;2023-08-07T12:52:54;13.40;99.90
10968;DHT22;5536;49.602;10.980;2023-08-07T12:55:21;13.30;99.90
10968;DHT22;5536;49.602;10.980;2023-08-07T12:57:48;13.10;99.90
10968;DHT22;5536;49.602;10.980;2023-08-07T13:00:16;13.10;99.90
10968;DHT22;5536;49.602;10.980;2023-08-07T13:02:45;13.10;99.90
10968;DHT22;5536;49.602;10.980;2023-08-07T13:05:13;13.20;99.90
10968;DHT22;5536;49.602;10.980;2023-08-07T13:07:42;13.20;99.90
10968;DHT22;5536;49.602;10.980;2023-08-07T13:10:10;13.30;99.90
10968;DHT22;5536;49.602;10.980;2023-08-07T13:12:39;13.30;99.90
10968;DHT22;5536;49.602;10.980;2023-08-07T13:15:08;13.40;99.90
10968;DHT22;5536;49.602;10.980;2023-08-07T13:17:35;13.30;99.90
10968;DHT22;5536;49.602;10.980;2023-08-07T13:20:03;13.30;99.90
10968;DHT22;5536;49.602;10.980;2023-08-07T13:22:34;13.20;99.90
10968;DHT22;5536;49.602;10.980;2023-08-07T13:25:02;13.20;99.90
10968;DHT22;5536;49.602;10.980;2023-08-07T13:27:30;13.20;99.90
10968;DHT22;5536;49.602;10.980;2023-08-07T13:29:57;13.30;99.90
10968;DHT22;5536;49.602;10.980;2023-08-07T13:32:25;13.50;99.90
10968;DHT22;5536;49.602;10.980;2023-08-07T13:34:52;13.50;99.90
10968;DHT22;5536;49.602;10.980;2023-08-07T13:37:19;13.60;99.90
10968;DHT22;5536;49.602;10.980;2023-08-07T13:39:48;13.70;99.90
10968;DHT22;5536;49.602;10.980;2023-08-07T13:42:18;13.70;99.90
10968;DHT22;5536;49.602;10.980;2023-08-07T13:44:45;13.70;99.90
10968;DHT22;5536;49.602;10.980;2023-08-07T13:47:12;13.70;99.90
10968;DHT22;5536;49.602;10.980;2023-08-07T13:49:40;13.70;99.90
10968;DHT22;5536;49.602;10.980;2023-08-07T13:52:07;13.70;99.90
10968;DHT22;5536;49.602;10.980;2023-08-07T13:54:34;13.70;99.90
10968;DHT22;5536;49.602;10.980;2023-08-07T13:57:03;13.80;99.90
10968;DHT22;5536;49.602;10.980;2023-08-07T13:59:31;13.80;99.90
10968;DHT22;5536;49.602;10.980;2023-08-07T14:01:58;13.70;99.90
10968;DHT22;5536;49.602;10.980;2023-08-07T14:04:25;13.60;99.90
10968;DHT22;5536;49.602;10.980;2023-08-07T14:06:52;13.60;99.90
10968;DHT22;5536;49.602;10.980;2023-08-07T14:09:19;13.60;99.90
10968;DHT22;5536;49.602;10.980;2023-08-07T14:11:47;13.60;99.90
10968;DHT22;5536;49.602;10.980;2023-08-07T14:14:16;13.60;99.90
10968;DHT22;5536;49.602;10.980;2023-08-07T14:16:43;13.60;99.90
10968;DHT22;5536;49.602;10.980;2023-08-07T14:19:10;13.60;99.90
10968;DHT22;5536;49.602;10.980;2023-08-07T14:21:37;13.60;99.90
10968;DHT22;5536;49.602;10.980;2023-08-07T14:24:05;13.60;99.90
10968;DHT22;5536;49.602;10.980;2023-08-07T14:26:32;13.60;99.90
10968;DHT22;5536;49.602;10.980;2023-08-07T14:28:59;13.70;99.90
10968;DHT22;5536;49.602;10.980;2023-08-07T14:31:28;13.70;99.90
10968;DHT22;5536;49.602;10.980;2023-08-07T14:33:55;13.70;99.90
10968;DHT22;5536;49.602;10.980;2023-08-07T14:36:22;13.80;99.90
10968;DHT22;5536;49.602;10.980;2023-08-07T14:38:49;13.90;99.90
10968;DHT22;5536;49.602;10.980;2023-08-07T14:41:17;13.90;99.90
10968;DHT22;5536;49.602;10.980;2023-08-07T14:43:44;13.90;99.90
10968;DHT22;5536;49.602;10.980;2023-08-07T14:46:12;14.00;99.90
10968;DHT22;5536;49.602;10.980;2023-08-07T14:48:41;14.00;99.90
10968;DHT22;5536;49.602;10.980;2023-08-07T14:51:08;14.00;99.90
10968;DHT22;5536;49.602;10.980;2023-08-07T14:53:35;14.00;99.90
10968;DHT22;5536;49.602;10.980;2023-08-07T14:56:02;14.10;99.90
10968;DHT22;5536;49.602;10.980;2023-08-07T14:58:29;14.00;99.90
10968;DHT22;5536;49.602;10.980;2023-08-07T15:00:58;14.20;99.90
10968;DHT22;5536;49.602;10.980;2023-08-07T15:03:25;14.30;99.90
10968;DHT22;5536;49.602;10.980;2023-08-07T15:05:53;14.50;99.90
10968;DHT22;5536;49.602;10.980;2023-08-07T15:08:20;14.90;99.90
10968;DHT22;5536;49.602;10.980;2023-08-07T15:10:47;14.90;99.90
10968;DHT22;5536;49.602;10.980;2023-08-07T15:13:15;15.00;99.90
10968;DHT22;5536;49.602;10.980;2023-08-07T15:15:42;14.90;99.90
10968;DHT22;5536;49.602;10.980;2023-08-07T15:18:08;14.90;99.90
10968;DHT22;5536;49.602;10.980;2023-08-07T15:20:35;15.00;99.90
10968;DHT22;5536;49.602;10.980;2023-08-07T15:23:04;14.90;99.90
10968;DHT22;5536;49.602;10.980;2023-08-07T15:25:31;14.80;99.90
10968;DHT22;5536;49.602;10.980;2023-08-07T15:27:58;14.80;99.90
10968;DHT22;5536;49.602;10.980;2023-08-07T15:30:27;14.80;99.90
10968;DHT22;5536;49.602;10.980;2023-08-07T15:32:54;14.90;99.90
10968;DHT22;5536;49.602;10.980;2023-08-07T15:35:21;15.00;99.90
10968;DHT22;5536;49.602;10.980;2023-08-07T15:37:49;15.10;99.90